Burley Municipal Airport
KBYI : rendu visible

Aérodrome :











RETROUVEZ-NOUS SUR...

 
LOGIN :

S'inscrire | Disclaimer

   EN    FR    IT 

 









Légende :    VFR   VFR Marginal   IFR   IFR Intensif   IFR Très Intensif
Visi : 
Plafond : 
>= 8 km
>= 3000ft
5 à 8 km
1000 à 3000 ft
1500m à 5 km
500 à 1000 ft
800 à 1500m
200 à 500 ft
< 800m
< 200 ft
Symboles :   Orages  Brouillard  Fortes neiges  Fortes précipitations  Vent > 20 kt






- Altitude de l'aérodrome : 4150 ft


KBYI - Burley Municipal

DERNIER METAR :
  • 222353Z AUTO 26003KT 10SM CLR 07/M05 A3021 RMK AO2 SLP245 T00671050 10094 20039 53006

METARs EXPIRÉS :
  • 222253Z AUTO 24008KT 10SM CLR 08/M04 A3019 RMK AO2 SLP236 T00831044
  • 222153Z AUTO 29005KT 10SM CLR 09/M04 A3018 RMK AO2 SLP230 T00891044

TAF KBYI
Valide du 23 à 00h jusqu'au 24 à 00h UTC


222320Z 2300/2324 24008KT P6SM FEW050
FM230200 VRB04KT P6SM FEW030



MET'MAP, la Météo Aéronautique d'un coup d'oeil ! - Copyright ORBIFLY Décembre 2007 - Disclaimer

ORBIFLY MET'MAP TEAM :

Programmation & Développement : Alexandra Zaïnal
Conception & Développement : Baudouin d'Aumeries
Co-Programmation & Développement : Marc-Olivier Méhu
Soutien technique & logistique : Manuel Goepfert

Contact : metmap@orbifly.com




SOURCES & CREDITS :

   NOAA       Earth
Advisory